createdAt,value
2018-03-01T00:00:40.963Z,80.46
2018-03-01T00:01:40.958Z,80.56
2018-03-01T00:02:40.937Z,80.56
2018-03-01T00:03:40.921Z,80.84
2018-03-01T00:04:40.903Z,80.46
2018-03-01T00:05:40.883Z,80.37
2018-03-01T00:06:40.869Z,80.56
2018-03-01T00:07:40.851Z,80.65
2018-03-01T00:08:40.836Z,80.46
2018-03-01T00:09:40.822Z,79.90
2018-03-01T00:10:40.800Z,80.27
2018-03-01T00:11:40.787Z,80.65
2018-03-01T00:12:40.769Z,80.84
2018-03-01T00:13:40.750Z,80.37
2018-03-01T00:14:40.746Z,80.08
2018-03-01T00:15:40.721Z,80.37
2018-03-01T00:16:40.704Z,80.08
2018-03-01T00:17:40.686Z,80.46
2018-03-01T00:18:40.674Z,79.99
2018-03-01T00:19:40.654Z,79.80
2018-03-01T00:20:40.643Z,80.56
2018-03-01T00:21:40.623Z,80.18
2018-03-01T00:22:40.606Z,80.65
2018-03-01T00:23:40.589Z,80.18
2018-03-01T00:24:40.574Z,80.46
2018-03-01T00:25:40.554Z,80.08
2018-03-01T00:26:40.541Z,79.71
2018-03-01T00:27:40.528Z,79.14
2018-03-01T00:28:40.506Z,80.56
2018-03-01T00:29:40.490Z,80.46
2018-03-01T00:30:40.471Z,80.93
2018-03-01T00:31:40.456Z,81.03
2018-03-01T00:32:40.450Z,80.84
2018-03-01T00:33:40.432Z,80.46
2018-03-01T00:34:40.404Z,80.27
2018-03-01T00:35:40.395Z,79.90
2018-03-01T00:36:40.377Z,80.65
2018-03-01T00:37:40.357Z,80.65
2018-03-01T00:38:40.337Z,79.71
2018-03-01T00:39:40.323Z,81.03
2018-03-01T00:40:40.307Z,80.93
2018-03-01T00:41:40.335Z,80.37
2018-03-01T00:42:40.274Z,80.56
2018-03-01T00:43:40.256Z,80.56
2018-03-01T00:44:40.240Z,80.08
2018-03-01T00:45:40.226Z,79.80
2018-03-01T00:46:40.207Z,80.18
2018-03-01T00:47:40.195Z,80.08
2018-03-01T00:48:40.173Z,79.99
2018-03-01T00:49:40.156Z,80.46
2018-03-01T00:50:40.140Z,80.18
2018-03-01T00:51:40.124Z,80.27
2018-03-01T00:52:40.107Z,80.18
2018-03-01T00:53:40.148Z,80.46
2018-03-01T00:54:40.073Z,79.80
2018-03-01T00:55:40.056Z,80.18
2018-03-01T00:56:40.046Z,80.65
2018-03-01T00:57:40.023Z,80.84
2018-03-01T00:58:40.010Z,80.93
2018-03-01T00:59:39.988Z,81.12
2018-03-01T01:00:39.975Z,81.12
2018-03-01T01:01:39.954Z,81.31
2018-03-01T01:02:39.939Z,80.93
2018-03-01T01:03:39.919Z,80.74
2018-03-01T01:04:39.903Z,80.56
2018-03-01T01:05:39.886Z,80.74
2018-03-01T01:06:39.870Z,80.84
2018-03-01T01:07:39.860Z,80.93
2018-03-01T01:08:39.839Z,81.03
2018-03-01T01:09:39.819Z,80.74
2018-03-01T01:10:39.802Z,81.03
2018-03-01T01:11:39.788Z,81.12
2018-03-01T01:12:39.768Z,80.84
2018-03-01T01:13:39.751Z,80.93
2018-03-01T01:14:39.736Z,80.93
2018-03-01T01:15:39.719Z,80.84
2018-03-01T01:16:39.703Z,81.03
2018-03-01T01:17:39.682Z,81.03
2018-03-01T01:18:39.670Z,80.93
2018-03-01T01:19:39.651Z,80.46
2018-03-01T01:20:39.640Z,80.65
2018-03-01T01:21:39.615Z,80.08
2018-03-01T01:22:39.600Z,80.18
2018-03-01T01:23:39.585Z,80.71
2018-03-01T01:24:39.566Z,80.99
2018-03-01T01:25:39.549Z,80.90
2018-03-01T01:26:39.530Z,80.71
2018-03-01T01:27:39.513Z,80.90
2018-03-01T01:28:39.505Z,80.71
2018-03-01T01:29:39.479Z,81.18
2018-03-01T01:30:39.464Z,80.99
2018-03-01T01:31:39.444Z,80.80
2018-03-01T01:32:39.430Z,80.90
2018-03-01T01:33:39.412Z,81.18
2018-03-01T01:34:39.396Z,81.08
2018-03-01T01:35:39.379Z,80.90
2018-03-01T01:36:39.371Z,80.46
2018-03-01T01:37:39.347Z,81.03
2018-03-01T01:38:39.333Z,80.65
2018-03-01T01:39:39.313Z,81.03
2018-03-01T01:40:39.293Z,80.74
2018-03-01T01:41:39.276Z,80.84
2018-03-01T01:42:39.261Z,80.74
2018-03-01T01:43:39.254Z,80.56
2018-03-01T01:44:39.227Z,80.18
2018-03-01T01:45:39.208Z,80.56
2018-03-01T01:46:39.192Z,80.08
2018-03-01T01:47:39.174Z,79.71
2018-03-01T01:48:39.158Z,80.08
2018-03-01T01:49:39.139Z,80.27
2018-03-01T01:50:39.126Z,80.27
2018-03-01T01:51:39.107Z,79.99
2018-03-01T01:52:39.092Z,80.93
2018-03-01T01:53:39.074Z,79.99
2018-03-01T01:54:39.058Z,80.18
2018-03-01T01:55:39.037Z,80.08
2018-03-01T01:56:39.022Z,79.99
2018-03-01T01:57:39.007Z,80.18
2018-03-01T01:58:38.987Z,79.61
2018-03-01T01:59:39.019Z,80.08
2018-03-01T02:00:38.963Z,79.90
2018-03-01T02:01:38.937Z,79.61
2018-03-01T02:02:38.918Z,79.90
2018-03-01T02:03:38.905Z,79.90
2018-03-01T02:04:38.887Z,79.61
2018-03-01T02:05:38.866Z,79.71
2018-03-01T02:06:38.856Z,79.90
2018-03-01T02:07:38.839Z,80.37
2018-03-01T02:08:38.818Z,79.99
2018-03-01T02:09:38.796Z,80.37
2018-03-01T02:10:38.783Z,80.27
2018-03-01T02:11:38.763Z,80.24
2018-03-01T02:12:38.750Z,80.56
2018-03-01T02:13:38.731Z,80.46
2018-03-01T02:14:38.713Z,79.99
2018-03-01T02:15:38.697Z,79.99
2018-03-01T02:16:38.685Z,80.05
2018-03-01T02:17:38.665Z,80.14
2018-03-01T02:18:38.643Z,79.86
2018-03-01T02:19:38.628Z,80.33
2018-03-01T02:20:38.611Z,80.52
2018-03-01T02:21:38.593Z,80.42
2018-03-01T02:22:38.579Z,80.14
2018-03-01T02:23:38.560Z,80.05
2018-03-01T02:24:38.543Z,80.71
2018-03-01T02:25:38.522Z,80.99
2018-03-01T02:26:38.507Z,81.56
2018-03-01T02:27:38.489Z,80.90
2018-03-01T02:28:38.473Z,80.71
2018-03-01T02:29:38.453Z,80.61
2018-03-01T02:30:38.439Z,80.90
2018-03-01T02:31:38.422Z,80.80
2018-03-01T02:32:38.412Z,81.18
2018-03-01T02:33:38.390Z,80.05
2018-03-01T02:34:38.369Z,80.52
2018-03-01T02:35:38.356Z,81.37
2018-03-01T02:36:38.336Z,81.65
2018-03-01T02:37:38.321Z,81.56
2018-03-01T02:38:38.298Z,80.14
2018-03-01T02:39:38.280Z,81.27
2018-03-01T02:40:38.268Z,80.99
2018-03-01T02:41:38.247Z,81.56
2018-03-01T02:42:38.230Z,80.90
2018-03-01T02:43:38.213Z,80.99
2018-03-01T02:44:38.198Z,81.27
2018-03-01T02:45:38.182Z,80.99
2018-03-01T02:46:38.170Z,81.74
2018-03-01T02:47:38.143Z,81.65
2018-03-01T02:48:38.127Z,81.27
2018-03-01T02:49:38.108Z,80.99
2018-03-01T02:50:38.092Z,82.03
2018-03-01T02:51:38.074Z,81.93
2018-03-01T02:52:38.059Z,81.84
2018-03-01T02:53:38.040Z,81.84
2018-03-01T02:54:38.023Z,82.03
2018-03-01T02:55:38.006Z,81.84
2018-03-01T02:56:37.986Z,82.03
2018-03-01T02:57:37.970Z,81.27
2018-03-01T02:58:37.958Z,81.74
2018-03-01T02:59:37.940Z,81.93
2018-03-01T03:00:37.921Z,81.84
2018-03-01T03:01:37.903Z,81.74
2018-03-01T03:02:37.884Z,81.93
2018-03-01T03:03:37.872Z,82.12
2018-03-01T03:04:37.850Z,81.74
2018-03-01T03:05:37.837Z,82.21
2018-03-01T03:06:37.813Z,82.12
2018-03-01T03:07:37.798Z,82.31
2018-03-01T03:08:37.783Z,82.21
2018-03-01T03:09:37.762Z,82.21
2018-03-01T03:10:37.747Z,82.21
2018-03-01T03:11:37.731Z,82.03
2018-03-01T03:12:37.716Z,82.40
2018-03-01T03:13:37.696Z,82.59
2018-03-01T03:14:37.676Z,82.12
2018-03-01T03:15:37.661Z,81.74
2018-03-01T03:16:37.644Z,81.84
2018-03-01T03:17:37.624Z,81.84
2018-03-01T03:18:37.609Z,81.74
2018-03-01T03:19:37.592Z,82.03
2018-03-01T03:20:37.577Z,82.40
2018-03-01T03:21:37.556Z,82.12
2018-03-01T03:22:37.550Z,82.40
2018-03-01T03:23:37.523Z,81.56
2018-03-01T03:24:37.505Z,82.21
2018-03-01T03:25:37.488Z,82.12
2018-03-01T03:26:37.469Z,82.12
2018-03-01T03:27:37.456Z,82.78
2018-03-01T03:28:37.446Z,82.59
2018-03-01T03:29:37.418Z,82.50
2018-03-01T03:30:37.402Z,82.50
2018-03-01T03:31:37.388Z,82.59
2018-03-01T03:32:37.367Z,82.50
2018-03-01T03:33:37.356Z,82.03
2018-03-01T03:34:37.331Z,82.59
2018-03-01T03:35:37.314Z,82.21
2018-03-01T03:36:37.299Z,82.12
2018-03-01T03:37:37.285Z,82.59
2018-03-01T03:38:37.263Z,82.78
2018-03-01T03:39:37.245Z,82.21
2018-03-01T03:40:37.227Z,82.31
2018-03-01T03:41:37.211Z,82.03
2018-03-01T03:42:37.189Z,82.68
2018-03-01T03:43:37.172Z,81.93
2018-03-01T03:44:37.159Z,81.93
2018-03-01T03:45:37.141Z,82.50
2018-03-01T03:46:37.125Z,82.78
2018-03-01T03:47:37.107Z,83.15
2018-03-01T03:48:37.088Z,82.40
2018-03-01T03:49:37.073Z,82.59
2018-03-01T03:50:37.060Z,82.68
2018-03-01T03:51:37.035Z,82.68
2018-03-01T03:52:37.019Z,82.40
2018-03-01T03:53:37.002Z,82.78
2018-03-01T03:54:36.985Z,82.40
2018-03-01T03:55:36.967Z,82.50
2018-03-01T03:56:36.951Z,82.59
2018-03-01T03:57:36.932Z,82.68
2018-03-01T03:58:36.916Z,82.59
2018-03-01T03:59:36.897Z,82.87
2018-03-01T04:00:36.882Z,82.78
2018-03-01T04:01:36.863Z,82.40
2018-03-01T04:02:36.854Z,81.93
2018-03-01T04:03:36.832Z,82.59
2018-03-01T04:04:36.810Z,82.31
2018-03-01T04:05:36.792Z,82.31
2018-03-01T04:06:36.774Z,82.78
2018-03-01T04:07:36.756Z,82.59
2018-03-01T04:08:36.742Z,82.78
2018-03-01T04:09:36.720Z,82.87
2018-03-01T04:10:36.703Z,83.25
2018-03-01T04:11:36.694Z,82.87
2018-03-01T04:12:36.671Z,82.68
2018-03-01T04:13:36.708Z,82.03
2018-03-01T04:14:36.632Z,81.74
2018-03-01T04:15:36.621Z,83.25
2018-03-01T04:16:36.598Z,83.25
2018-03-01T04:17:36.577Z,83.34
2018-03-01T04:18:36.564Z,83.34
2018-03-01T04:19:36.544Z,83.06
2018-03-01T04:20:36.528Z,83.72
2018-03-01T04:21:36.509Z,83.62
2018-03-01T04:22:36.491Z,82.87
2018-03-01T04:23:36.474Z,82.68
2018-03-01T04:24:36.457Z,82.59
2018-03-01T04:25:36.436Z,82.87
2018-03-01T04:26:36.424Z,82.50
2018-03-01T04:27:36.404Z,82.68
2018-03-01T04:28:36.391Z,83.53
2018-03-01T04:29:36.368Z,83.06
2018-03-01T04:30:36.350Z,83.06
2018-03-01T04:31:36.333Z,83.25
2018-03-01T04:32:36.318Z,83.25
2018-03-01T04:33:36.307Z,82.78
2018-03-01T04:34:36.281Z,83.53
2018-03-01T04:35:36.263Z,83.53
2018-03-01T04:36:36.246Z,83.62
2018-03-01T04:37:36.226Z,83.62
2018-03-01T04:38:36.221Z,82.59
2018-03-01T04:39:36.192Z,82.78
2018-03-01T04:40:36.174Z,82.68
2018-03-01T04:41:36.149Z,83.44
2018-03-01T04:42:36.129Z,83.34
2018-03-01T04:43:36.117Z,83.25
2018-03-01T04:44:36.098Z,82.68
2018-03-01T04:45:36.078Z,83.34
2018-03-01T04:46:36.061Z,83.72
2018-03-01T04:47:36.048Z,82.68
2018-03-01T04:48:36.031Z,83.25
2018-03-01T04:49:36.009Z,83.15
2018-03-01T04:50:35.991Z,82.97
2018-03-01T04:51:35.979Z,83.44
2018-03-01T04:52:35.956Z,83.25
2018-03-01T04:53:35.940Z,83.34
2018-03-01T04:54:35.917Z,83.25
2018-03-01T04:55:35.902Z,83.53
2018-03-01T04:56:35.886Z,83.25
2018-03-01T04:57:35.869Z,83.53
2018-03-01T04:58:35.849Z,83.34
2018-03-01T04:59:35.831Z,82.68
2018-03-01T05:00:35.818Z,83.15
2018-03-01T05:01:35.796Z,83.25
2018-03-01T05:02:35.776Z,83.62
2018-03-01T05:03:35.758Z,83.34
2018-03-01T05:04:35.744Z,83.06
2018-03-01T05:05:35.724Z,83.44
2018-03-01T05:06:35.708Z,83.25
2018-03-01T05:07:35.685Z,83.25
2018-03-01T05:08:35.673Z,83.44
2018-03-01T05:09:35.664Z,83.34
2018-03-01T05:10:35.636Z,83.34
2018-03-01T05:11:35.611Z,83.44
2018-03-01T05:12:36.354Z,83.53
2018-03-01T05:13:35.588Z,83.34
2018-03-01T05:14:35.563Z,83.15
2018-03-01T05:15:35.545Z,83.25
2018-03-01T05:16:35.530Z,83.44
2018-03-01T05:17:35.510Z,83.34
2018-03-01T05:18:35.498Z,83.44
2018-03-01T05:19:35.478Z,83.15
2018-03-01T05:20:35.466Z,83.34
2018-03-01T05:21:35.441Z,83.15
2018-03-01T05:22:35.423Z,83.53
2018-03-01T05:23:35.402Z,83.62
2018-03-01T05:24:35.384Z,83.25
2018-03-01T05:25:35.367Z,83.25
2018-03-01T05:26:35.350Z,83.53
2018-03-01T05:27:35.333Z,83.44
2018-03-01T05:28:35.316Z,83.53
2018-03-01T05:29:35.296Z,83.62
2018-03-01T05:30:35.279Z,83.53
2018-03-01T05:31:35.261Z,83.53
2018-03-01T05:32:35.243Z,83.34
2018-03-01T05:33:35.227Z,83.72
2018-03-01T05:34:35.209Z,83.44
2018-03-01T05:35:35.195Z,83.25
2018-03-01T05:36:35.174Z,83.72
2018-03-01T05:37:35.158Z,83.34
2018-03-01T05:38:35.140Z,83.62
2018-03-01T05:39:35.118Z,83.62
2018-03-01T05:40:35.101Z,83.34
2018-03-01T05:41:35.082Z,83.15
2018-03-01T05:42:35.066Z,83.34
2018-03-01T05:43:35.052Z,83.44
2018-03-01T05:44:35.029Z,83.72
2018-03-01T05:45:35.014Z,83.72
2018-03-01T05:46:34.992Z,83.25
2018-03-01T05:47:34.987Z,83.72
2018-03-01T05:48:34.956Z,83.44
2018-03-01T05:49:34.939Z,83.91
2018-03-01T05:50:34.920Z,83.72
2018-03-01T05:51:34.904Z,83.72
2018-03-01T05:52:34.885Z,83.72
2018-03-01T05:53:34.870Z,83.25
2018-03-01T05:54:34.849Z,83.72
2018-03-01T05:55:34.839Z,83.91
2018-03-01T05:56:34.813Z,83.91
2018-03-01T05:57:34.794Z,83.72
2018-03-01T05:58:34.777Z,83.53
2018-03-01T05:59:35.450Z,83.62
2018-03-01T06:00:34.738Z,83.72
2018-03-01T06:01:34.722Z,83.62
2018-03-01T06:02:34.707Z,83.91
2018-03-01T06:03:34.688Z,83.62
2018-03-01T06:04:34.667Z,83.72
2018-03-01T06:05:34.648Z,83.53
2018-03-01T06:06:34.631Z,83.81
2018-03-01T06:07:34.617Z,83.72
2018-03-01T06:08:34.596Z,84.00
2018-03-01T06:09:34.577Z,84.09
2018-03-01T06:10:34.557Z,84.09
2018-03-01T06:11:34.540Z,83.72
2018-03-01T06:12:34.532Z,83.53
2018-03-01T06:13:34.508Z,83.25
2018-03-01T06:14:34.515Z,83.91
2018-03-01T06:15:34.468Z,83.25
2018-03-01T06:16:34.450Z,83.81
2018-03-01T06:17:34.433Z,83.81
2018-03-01T06:18:34.413Z,84.19
2018-03-01T06:19:34.398Z,83.72
2018-03-01T06:20:34.404Z,83.53
2018-03-01T06:21:34.360Z,83.91
2018-03-01T06:22:34.344Z,83.62
2018-03-01T06:23:34.321Z,83.72
2018-03-01T06:24:34.305Z,83.72
2018-03-01T06:25:34.287Z,84.19
2018-03-01T06:26:34.269Z,83.53
2018-03-01T06:27:34.252Z,83.44
2018-03-01T06:28:34.233Z,83.25
2018-03-01T06:29:34.212Z,83.34
2018-03-01T06:30:34.193Z,83.72
2018-03-01T06:31:34.178Z,83.91
2018-03-01T06:32:34.161Z,83.72
2018-03-01T06:33:34.141Z,83.62
2018-03-01T06:34:34.123Z,84.09
2018-03-01T06:35:34.105Z,84.00
2018-03-01T06:36:34.089Z,84.00
2018-03-01T06:37:34.069Z,83.72
2018-03-01T06:38:34.050Z,83.72
2018-03-01T06:39:34.031Z,83.34
2018-03-01T06:40:34.014Z,84.19
2018-03-01T06:41:33.995Z,83.53
2018-03-01T06:42:34.021Z,83.34
2018-03-01T06:43:33.958Z,83.53
2018-03-01T06:44:33.944Z,83.72
2018-03-01T06:45:33.932Z,83.91
2018-03-01T06:46:33.905Z,83.91
2018-03-01T06:47:33.888Z,83.62
2018-03-01T06:48:33.871Z,84.19
2018-03-01T06:49:33.854Z,83.34
2018-03-01T06:50:33.833Z,83.34
2018-03-01T06:51:33.817Z,84.28
2018-03-01T06:52:33.802Z,83.44
2018-03-01T06:53:33.777Z,84.38
2018-03-01T06:54:33.765Z,84.09
2018-03-01T06:55:33.744Z,83.53
2018-03-01T06:56:33.727Z,83.44
2018-03-01T06:57:33.706Z,83.91
2018-03-01T06:58:33.690Z,83.53
2018-03-01T06:59:33.673Z,83.53
2018-03-01T07:00:33.664Z,83.34
2018-03-01T07:01:33.635Z,83.44
2018-03-01T07:02:33.615Z,83.34
2018-03-01T07:03:33.598Z,84.19
2018-03-01T07:04:33.579Z,83.53
2018-03-01T07:05:33.561Z,83.91
2018-03-01T07:06:33.541Z,83.53
2018-03-01T07:07:33.523Z,83.72
2018-03-01T07:08:33.510Z,83.25
2018-03-01T07:09:33.531Z,83.72
2018-03-01T07:10:33.478Z,83.72
2018-03-01T07:11:33.482Z,82.03
2018-03-01T07:12:33.435Z,83.53
2018-03-01T07:13:33.414Z,83.91
2018-03-01T07:14:33.398Z,83.53
2018-03-01T07:15:33.379Z,83.81
2018-03-01T07:16:33.362Z,83.15
2018-03-01T07:17:33.359Z,83.72
2018-03-01T07:18:33.325Z,83.25
2018-03-01T07:19:33.308Z,83.25
2018-03-01T07:20:33.288Z,83.15
2018-03-01T07:21:33.271Z,83.25
2018-03-01T07:22:33.281Z,83.62
2018-03-01T07:23:33.232Z,83.25
2018-03-01T07:24:33.216Z,83.25
2018-03-01T07:25:33.198Z,83.72
2018-03-01T07:26:33.181Z,83.34
2018-03-01T07:27:33.165Z,83.44
2018-03-01T07:28:33.143Z,84.09
2018-03-01T07:29:33.132Z,83.15
2018-03-01T07:30:33.107Z,82.87
2018-03-01T07:31:33.091Z,83.15
2018-03-01T07:32:33.074Z,83.53
2018-03-01T07:33:33.059Z,82.87
2018-03-01T07:34:33.035Z,83.15
2018-03-01T07:35:33.016Z,83.72
2018-03-01T07:36:32.999Z,82.97
2018-03-01T07:37:32.981Z,82.87
2018-03-01T07:38:32.963Z,83.34
2018-03-01T07:39:32.946Z,83.44
2018-03-01T07:40:32.930Z,82.40
2018-03-01T07:41:32.906Z,83.06
2018-03-01T07:42:32.889Z,82.21
2018-03-01T07:43:32.869Z,83.06
2018-03-01T07:44:32.854Z,82.50
2018-03-01T07:45:32.845Z,82.50
2018-03-01T07:46:32.820Z,82.31
2018-03-01T07:47:32.800Z,81.93
2018-03-01T07:48:32.780Z,82.31
2018-03-01T07:49:32.765Z,82.59
2018-03-01T07:50:32.748Z,83.06
2018-03-01T07:51:32.730Z,82.50
2018-03-01T07:52:32.713Z,82.31
2018-03-01T07:53:32.699Z,81.84
2018-03-01T07:54:32.684Z,82.21
2018-03-01T07:55:32.659Z,81.93
2018-03-01T07:56:32.666Z,83.34
2018-03-01T07:57:32.622Z,82.50
2018-03-01T07:58:32.606Z,82.40
2018-03-01T07:59:32.590Z,82.50
2018-03-01T08:00:33.436Z,82.59
2018-03-01T08:01:32.551Z,82.21
2018-03-01T08:02:32.536Z,81.56
2018-03-01T08:03:32.594Z,81.65
2018-03-01T08:04:32.501Z,81.56
2018-03-01T08:05:32.480Z,80.61
2018-03-01T08:06:32.465Z,80.61
2018-03-01T08:07:32.451Z,80.90
2018-03-01T08:08:32.433Z,80.42
2018-03-01T08:09:32.416Z,81.46
2018-03-01T08:10:32.396Z,80.90
2018-03-01T08:11:32.378Z,81.46
2018-03-01T08:12:32.362Z,80.99
2018-03-01T08:13:32.440Z,80.52
2018-03-01T08:14:32.522Z,80.80
2018-03-01T08:15:32.309Z,80.90
2018-03-01T08:16:32.291Z,80.90
2018-03-01T08:17:32.273Z,80.80
2018-03-01T08:18:32.251Z,80.33
2018-03-01T08:19:32.239Z,80.90
2018-03-01T08:20:32.221Z,80.71
2018-03-01T08:21:32.204Z,80.33
2018-03-01T08:22:32.186Z,80.61
2018-03-01T08:23:32.170Z,80.05
2018-03-01T08:24:32.152Z,80.24
2018-03-01T08:25:32.193Z,80.24
2018-03-01T08:26:32.118Z,80.42
2018-03-01T08:27:32.100Z,80.80
2018-03-01T08:28:32.082Z,79.86
2018-03-01T08:29:32.064Z,79.67
2018-03-01T08:30:32.046Z,79.95
2018-03-01T08:31:32.028Z,80.05
2018-03-01T08:32:32.024Z,79.95
2018-03-01T08:33:31.997Z,79.01
2018-03-01T08:34:32.018Z,78.73
2018-03-01T08:35:31.962Z,79.86
2018-03-01T08:36:31.943Z,79.76
2018-03-01T08:37:31.919Z,79.95
2018-03-01T08:38:31.906Z,79.10
2018-03-01T08:39:31.887Z,79.61
2018-03-01T08:40:31.884Z,79.43
2018-03-01T08:41:31.854Z,79.43
2018-03-01T08:42:31.836Z,79.52
2018-03-01T08:43:31.820Z,79.24
2018-03-01T08:44:31.804Z,79.43
2018-03-01T08:45:31.817Z,78.73
2018-03-01T08:46:31.770Z,79.01
2018-03-01T08:47:31.752Z,78.44
2018-03-01T08:48:31.730Z,78.07
2018-03-01T08:49:31.715Z,78.49
2018-03-01T08:50:31.697Z,78.86
2018-03-01T08:51:31.685Z,78.20
2018-03-01T08:52:31.664Z,77.92
2018-03-01T08:53:31.644Z,77.64
2018-03-01T08:54:31.625Z,77.07
2018-03-01T08:55:31.668Z,76.60
2018-03-01T08:56:31.607Z,76.79
2018-03-01T08:57:31.574Z,76.60
2018-03-01T08:58:31.556Z,76.79
2018-03-01T08:59:31.539Z,76.04
2018-03-01T09:00:31.522Z,77.73
2018-03-01T09:01:31.506Z,77.26
2018-03-01T09:02:31.489Z,77.36
2018-03-01T09:03:31.472Z,77.73
2018-03-01T09:04:31.452Z,77.73
2018-03-01T09:05:31.435Z,77.26
2018-03-01T09:06:31.422Z,77.36
2018-03-01T09:07:31.403Z,77.36
2018-03-01T09:08:31.385Z,77.36
2018-03-01T09:09:31.363Z,77.55
2018-03-01T09:10:31.350Z,76.60
2018-03-01T09:11:31.334Z,77.07
2018-03-01T09:12:31.317Z,76.79
2018-03-01T09:13:31.297Z,76.79
2018-03-01T09:14:31.284Z,76.79
2018-03-01T09:15:31.265Z,75.94
2018-03-01T09:16:31.244Z,76.13
2018-03-01T09:17:31.226Z,75.47
2018-03-01T09:18:31.212Z,75.28
2018-03-01T09:19:31.195Z,74.90
2018-03-01T09:20:31.210Z,74.81
2018-03-01T09:21:31.163Z,74.81
2018-03-01T09:22:31.140Z,74.90
2018-03-01T09:23:31.126Z,74.62
2018-03-01T09:24:31.109Z,74.62
2018-03-01T09:25:31.090Z,75.28
2018-03-01T09:26:31.076Z,75.00
2018-03-01T09:27:31.074Z,74.81
2018-03-01T09:28:31.040Z,74.62
2018-03-01T09:29:31.022Z,74.34
2018-03-01T09:30:31.009Z,74.05
2018-03-01T09:31:31.026Z,73.87
2018-03-01T09:32:30.973Z,74.24
2018-03-01T09:33:30.957Z,73.58
2018-03-01T09:34:30.960Z,73.58
2018-03-01T09:35:30.919Z,73.39
2018-03-01T09:36:30.905Z,74.05
2018-03-01T09:37:30.887Z,74.24
2018-03-01T09:38:30.871Z,74.34
2018-03-01T09:39:30.854Z,74.24
2018-03-01T09:40:30.838Z,74.24
2018-03-01T09:41:30.820Z,74.34
2018-03-01T09:42:30.806Z,73.87
2018-03-01T09:43:30.784Z,73.58
2018-03-01T09:44:30.794Z,72.64
2018-03-01T09:45:30.753Z,73.11
2018-03-01T09:46:30.774Z,73.77
2018-03-01T09:47:30.723Z,73.02
2018-03-01T09:48:30.701Z,72.74
2018-03-01T09:49:30.713Z,73.02
2018-03-01T09:50:30.681Z,73.21
2018-03-01T09:51:30.647Z,73.02
2018-03-01T09:52:30.636Z,72.83
2018-03-01T09:53:30.617Z,72.27
2018-03-01T09:54:30.603Z,72.27
2018-03-01T09:55:30.584Z,73.21
2018-03-01T09:56:30.567Z,73.39
2018-03-01T09:57:30.551Z,72.92
2018-03-01T09:58:30.552Z,73.68
2018-03-01T09:59:30.517Z,72.36
2018-03-01T10:00:30.498Z,71.89
2018-03-01T10:01:30.480Z,72.64
2018-03-01T10:02:30.466Z,72.27
2018-03-01T10:03:30.449Z,72.64
2018-03-01T10:04:30.432Z,72.83
2018-03-01T10:05:30.456Z,73.96
2018-03-01T10:06:30.420Z,72.92
2018-03-01T10:07:30.382Z,72.27
2018-03-01T10:08:30.426Z,72.27
2018-03-01T10:09:30.367Z,73.11
2018-03-01T10:10:30.329Z,72.08
2018-03-01T10:11:30.319Z,72.08
2018-03-01T10:12:30.299Z,72.64
2018-03-01T10:13:30.308Z,72.45
2018-03-01T10:14:30.263Z,71.80
2018-03-01T10:15:30.246Z,71.70
2018-03-01T10:16:30.230Z,71.61
2018-03-01T10:17:30.254Z,71.42
2018-03-01T10:18:30.221Z,71.70
2018-03-01T10:19:30.178Z,72.27
2018-03-01T10:20:30.162Z,70.48
2018-03-01T10:21:30.143Z,70.67
2018-03-01T10:22:30.127Z,70.61
2018-03-01T10:23:30.110Z,70.32
2018-03-01T10:24:30.095Z,68.34
2018-03-01T10:25:30.076Z,69.48
2018-03-01T10:26:30.066Z,66.83
2018-03-01T10:27:30.044Z,67.49
2018-03-01T10:28:30.027Z,67.40
2018-03-01T10:29:30.011Z,67.49
2018-03-01T10:30:29.995Z,68.15
2018-03-01T10:31:30.027Z,67.78
2018-03-01T10:32:29.963Z,69.00
2018-03-01T10:33:29.944Z,68.15
2018-03-01T10:34:29.929Z,68.12
2018-03-01T10:35:29.911Z,68.68
2018-03-01T10:36:29.897Z,69.00
2018-03-01T10:37:29.883Z,67.87
2018-03-01T10:38:29.862Z,68.34
2018-03-01T10:39:29.847Z,68.15
2018-03-01T10:40:29.831Z,69.10
2018-03-01T10:41:29.813Z,67.49
2018-03-01T10:42:29.795Z,66.93
2018-03-01T10:43:29.788Z,66.93
2018-03-01T10:44:29.769Z,66.74
2018-03-01T10:45:29.748Z,67.55
2018-03-01T10:46:29.731Z,68.63
2018-03-01T10:47:29.720Z,68.34
2018-03-01T10:48:29.701Z,67.87
2018-03-01T10:49:29.682Z,67.02
2018-03-01T10:50:29.666Z,66.55
2018-03-01T10:51:29.652Z,67.02
2018-03-01T10:52:29.636Z,67.12
2018-03-01T10:53:29.622Z,66.55
2018-03-01T10:54:29.603Z,66.27
2018-03-01T10:55:29.585Z,65.42
2018-03-01T10:56:29.570Z,65.80
2018-03-01T10:57:29.552Z,65.42
2018-03-01T10:58:29.538Z,64.48
2018-03-01T10:59:29.572Z,64.39
2018-03-01T11:00:29.509Z,65.61
2018-03-01T11:01:29.489Z,64.67
2018-03-01T11:02:29.473Z,65.61
2018-03-01T11:03:29.456Z,64.48
2018-03-01T11:04:29.442Z,64.29
2018-03-01T11:05:29.424Z,63.73
2018-03-01T11:06:29.411Z,63.44
2018-03-01T11:07:29.396Z,63.63
2018-03-01T11:08:29.378Z,63.44
2018-03-01T11:09:29.361Z,62.50
2018-03-01T11:10:29.345Z,62.31
2018-03-01T11:11:29.334Z,62.12
2018-03-01T11:12:29.316Z,61.18
2018-03-01T11:13:29.297Z,61.18
2018-03-01T11:14:29.282Z,63.25
2018-03-01T11:15:29.271Z,63.35
2018-03-01T11:16:29.252Z,62.97
2018-03-01T11:17:29.236Z,63.35
2018-03-01T11:18:29.220Z,62.21
2018-03-01T11:19:29.208Z,61.08
2018-03-01T11:20:29.189Z,61.27
2018-03-01T11:21:29.172Z,61.36
2018-03-01T11:22:29.162Z,61.49
2018-03-01T11:23:29.142Z,60.74
2018-03-01T11:24:29.128Z,60.52
2018-03-01T11:25:29.112Z,61.46
2018-03-01T11:26:29.095Z,62.03
2018-03-01T11:27:29.083Z,62.40
2018-03-01T11:28:29.064Z,62.12
2018-03-01T11:29:29.049Z,62.21
2018-03-01T11:30:29.032Z,61.55
2018-03-01T11:31:29.018Z,61.55
2018-03-01T11:32:29.005Z,61.27
2018-03-01T11:33:28.986Z,61.84
2018-03-01T11:34:28.970Z,61.30
2018-03-01T11:35:28.957Z,60.80
2018-03-01T11:36:28.941Z,60.99
2018-03-01T11:37:28.924Z,60.80
2018-03-01T11:38:28.909Z,60.80
2018-03-01T11:39:28.894Z,60.36
2018-03-01T11:40:28.878Z,60.61
2018-03-01T11:41:28.862Z,60.61
2018-03-01T11:42:28.845Z,62.21
2018-03-01T11:43:28.831Z,61.87
2018-03-01T11:44:28.811Z,60.93
2018-03-01T11:45:28.796Z,60.42
2018-03-01T11:46:28.784Z,60.05
2018-03-01T11:47:28.770Z,60.27
2018-03-01T11:48:28.755Z,59.30
2018-03-01T11:49:28.736Z,59.58
2018-03-01T11:50:28.726Z,59.42
2018-03-01T11:51:28.708Z,60.27
2018-03-01T11:52:28.708Z,59.80
2018-03-01T11:53:28.675Z,59.51
2018-03-01T11:54:29.120Z,59.04
2018-03-01T11:55:28.644Z,58.76
2018-03-01T11:56:28.629Z,58.57
2018-03-01T11:57:28.612Z,59.04
2018-03-01T11:58:28.597Z,58.66
2018-03-01T11:59:28.585Z,58.57
2018-03-01T12:00:28.567Z,58.85
2018-03-01T12:01:28.551Z,58.76
2018-03-01T12:02:28.545Z,58.95
2018-03-01T12:03:28.522Z,59.14
2018-03-01T12:04:28.538Z,58.95
2018-03-01T12:05:28.491Z,58.95
2018-03-01T12:06:28.477Z,58.66
2018-03-01T12:07:28.458Z,58.76
2018-03-01T12:08:28.444Z,58.66
2018-03-01T12:09:28.430Z,58.66
2018-03-01T12:10:28.455Z,58.85
2018-03-01T12:11:28.409Z,58.95
2018-03-01T12:12:28.385Z,59.14
2018-03-01T12:13:28.372Z,59.04
2018-03-01T12:14:28.356Z,59.04
2018-03-01T12:15:28.340Z,58.47
2018-03-01T12:16:28.325Z,58.10
2018-03-01T12:17:28.308Z,57.91
2018-03-01T12:18:28.294Z,58.29
2018-03-01T12:19:28.277Z,58.57
2018-03-01T12:20:28.266Z,58.95
2018-03-01T12:21:28.248Z,58.57
2018-03-01T12:22:28.230Z,58.66
2018-03-01T12:23:28.216Z,58.85
2018-03-01T12:24:28.201Z,58.95
2018-03-01T12:25:28.186Z,59.70
2018-03-01T12:26:28.171Z,59.23
2018-03-01T12:27:28.154Z,59.89
2018-03-01T12:28:28.200Z,58.95
2018-03-01T12:29:28.124Z,58.76
2018-03-01T12:30:28.139Z,58.47
2018-03-01T12:31:28.092Z,59.04
2018-03-01T12:32:28.077Z,58.76
2018-03-01T12:33:28.062Z,59.14
2018-03-01T12:34:28.048Z,59.14
2018-03-01T12:35:28.030Z,58.76
2018-03-01T12:36:28.014Z,58.66
2018-03-01T12:37:28.000Z,58.85
2018-03-01T12:38:27.986Z,58.85
2018-03-01T12:39:27.969Z,58.00
2018-03-01T12:40:27.956Z,57.34
2018-03-01T12:41:27.939Z,56.96
2018-03-01T12:42:27.926Z,56.59
2018-03-01T12:43:27.908Z,56.77
2018-03-01T12:44:27.893Z,56.68
2018-03-01T12:45:27.876Z,56.40
2018-03-01T12:46:27.872Z,56.77
2018-03-01T12:47:27.856Z,56.49
2018-03-01T12:48:27.833Z,57.15
2018-03-01T12:49:27.825Z,57.25
2018-03-01T12:50:27.802Z,57.25
2018-03-01T12:51:27.790Z,56.96
2018-03-01T12:52:27.774Z,57.25